createdAt,value
2022-09-14T00:01:40.095Z,14.12
2022-09-14T00:04:11.821Z,14.09
2022-09-14T00:06:42.733Z,14.03
2022-09-14T00:09:16.062Z,13.97
2022-09-14T00:11:46.027Z,13.92
2022-09-14T00:14:16.862Z,13.89
2022-09-14T00:16:46.827Z,13.86
2022-09-14T00:19:18.788Z,13.83
2022-09-14T00:21:46.320Z,13.76
2022-09-14T00:24:13.986Z,13.69
2022-09-14T00:26:41.522Z,13.65
2022-09-14T00:29:09.073Z,13.62
2022-09-14T00:31:40.725Z,13.60
2022-09-14T00:34:14.405Z,13.56
2022-09-14T00:36:46.329Z,13.56
2022-09-14T00:39:18.030Z,13.51
2022-09-14T00:41:47.673Z,13.50
2022-09-14T00:44:19.219Z,13.47
2022-09-14T00:46:49.164Z,13.42
2022-09-14T00:49:24.026Z,13.36
2022-09-14T00:51:58.330Z,13.38
2022-09-14T00:54:28.503Z,13.39
2022-09-14T00:56:57.065Z,13.38
2022-09-14T00:59:28.790Z,13.30
2022-09-14T01:01:56.367Z,13.29
2022-09-14T01:04:24.580Z,13.31
2022-09-14T01:07:09.631Z,13.29
2022-09-14T01:09:42.448Z,13.25
2022-09-14T01:12:20.466Z,13.20
2022-09-14T01:15:06.186Z,13.22
2022-09-14T01:17:40.808Z,13.22
2022-09-14T01:20:17.376Z,13.18
2022-09-14T01:22:53.936Z,13.14
2022-09-14T01:25:28.217Z,13.06
2022-09-14T01:28:02.518Z,13.09
2022-09-14T01:30:34.703Z,13.02
2022-09-14T01:33:23.400Z,13.00
2022-09-14T01:35:59.747Z,13.00
2022-09-14T01:38:42.258Z,12.98
2022-09-14T01:41:13.301Z,12.96
2022-09-14T01:43:49.390Z,12.93
2022-09-14T01:46:28.018Z,12.85
2022-09-14T01:49:38.152Z,12.91
2022-09-14T01:52:13.535Z,12.86
2022-09-14T01:54:47.653Z,12.80
2022-09-14T01:57:15.119Z,12.77
2022-09-14T01:59:48.257Z,12.77
2022-09-14T02:02:38.644Z,12.77
2022-09-14T02:05:14.239Z,12.74
2022-09-14T02:07:42.175Z,12.76
2022-09-14T02:10:13.526Z,12.69
2022-09-14T02:12:42.291Z,12.69
2022-09-14T02:15:12.193Z,12.73
2022-09-14T02:17:40.689Z,12.74
2022-09-14T02:20:14.407Z,12.73
2022-09-14T02:22:42.235Z,12.72
2022-09-14T02:25:09.883Z,12.70
2022-09-14T02:27:39.708Z,12.70
2022-09-14T02:30:08.121Z,12.75
2022-09-14T02:32:54.179Z,12.69
2022-09-14T02:35:21.699Z,12.71
2022-09-14T02:38:12.059Z,12.68
2022-09-14T02:40:51.830Z,12.66
2022-09-14T02:43:19.286Z,12.65
2022-09-14T02:45:56.151Z,12.59
2022-09-14T02:48:35.528Z,12.62
2022-09-14T02:51:25.759Z,12.72
2022-09-14T02:54:15.722Z,12.81
2022-09-14T02:56:44.781Z,12.89
2022-09-14T02:59:12.855Z,12.96
2022-09-14T03:01:40.631Z,13.04
2022-09-14T03:04:08.268Z,13.08
2022-09-14T03:06:36.083Z,13.09
2022-09-14T03:09:04.128Z,13.09
2022-09-14T03:11:31.865Z,13.13
2022-09-14T03:13:59.555Z,13.20
2022-09-14T03:16:29.299Z,13.35
2022-09-14T03:18:56.847Z,13.37
2022-09-14T03:21:24.847Z,13.41
2022-09-14T03:23:55.173Z,13.47
2022-09-14T03:26:30.183Z,13.52
2022-09-14T03:29:00.609Z,13.60
2022-09-14T03:31:28.293Z,13.67
2022-09-14T03:33:57.866Z,13.73
2022-09-14T03:36:27.499Z,13.78
2022-09-14T03:38:59.742Z,13.89
2022-09-14T03:41:28.530Z,14.01
2022-09-14T03:43:56.112Z,14.07
2022-09-14T03:46:25.853Z,14.12
2022-09-14T03:48:55.682Z,14.14
2022-09-14T03:51:23.902Z,14.18
2022-09-14T03:53:51.430Z,14.25
2022-09-14T03:56:23.972Z,14.27
2022-09-14T03:58:52.123Z,14.30
2022-09-14T04:01:22.282Z,14.32
2022-09-14T04:03:50.911Z,14.32
2022-09-14T04:06:21.275Z,14.29
2022-09-14T04:08:48.874Z,14.25
2022-09-14T04:11:22.169Z,14.17
2022-09-14T04:13:50.574Z,14.16
2022-09-14T04:16:23.570Z,14.14
2022-09-14T04:18:51.194Z,14.13
2022-09-14T04:21:22.213Z,14.08
2022-09-14T04:24:14.061Z,14.05
2022-09-14T04:26:43.127Z,13.97
2022-09-14T04:29:12.562Z,13.96
2022-09-14T04:31:40.534Z,13.98
2022-09-14T04:34:11.502Z,13.98
2022-09-14T04:36:39.021Z,14.00
2022-09-14T04:39:13.617Z,13.95
2022-09-14T04:41:41.298Z,13.97
2022-09-14T04:44:08.807Z,13.99
2022-09-14T04:46:36.733Z,14.04
2022-09-14T04:49:04.641Z,14.04
2022-09-14T04:51:33.994Z,14.07
2022-09-14T04:54:03.414Z,14.10
2022-09-14T04:56:33.473Z,14.13
2022-09-14T04:59:04.211Z,14.20
2022-09-14T05:01:36.598Z,14.33
2022-09-14T05:04:08.593Z,14.45
2022-09-14T05:06:39.136Z,14.50
2022-09-14T05:09:11.129Z,14.54
2022-09-14T05:11:38.678Z,14.59
2022-09-14T05:14:06.517Z,14.60
2022-09-14T05:16:37.110Z,14.65
2022-09-14T05:19:07.495Z,14.73
2022-09-14T05:21:37.413Z,14.87
2022-09-14T05:24:16.804Z,15.01
2022-09-14T05:26:45.757Z,15.15
2022-09-14T05:29:20.846Z,15.27
2022-09-14T05:31:51.217Z,15.35
2022-09-14T05:34:18.774Z,15.40
2022-09-14T05:36:46.290Z,15.42
2022-09-14T05:39:14.024Z,15.48
2022-09-14T05:41:41.897Z,15.59
2022-09-14T05:44:09.849Z,15.63
2022-09-14T05:46:39.786Z,15.74
2022-09-14T05:49:08.642Z,15.77
2022-09-14T05:51:38.566Z,15.93
2022-09-14T05:54:10.144Z,16.04
2022-09-14T05:56:41.182Z,16.10
2022-09-14T05:59:08.712Z,16.14
2022-09-14T06:01:36.289Z,16.18
2022-09-14T06:04:04.430Z,16.43
2022-09-14T06:06:34.755Z,16.67
2022-09-14T06:09:03.749Z,16.83
2022-09-14T06:11:36.225Z,16.92
2022-09-14T06:14:04.462Z,16.97
2022-09-14T06:16:33.100Z,16.88
2022-09-14T06:19:01.283Z,16.98
2022-09-14T06:21:35.663Z,17.25
2022-09-14T06:24:05.574Z,17.37
2022-09-14T06:26:33.399Z,17.47
2022-09-14T06:29:00.926Z,17.71
2022-09-14T06:31:28.670Z,17.49
2022-09-14T06:33:56.225Z,17.48
2022-09-14T06:36:26.790Z,17.55
2022-09-14T06:38:57.352Z,17.62
2022-09-14T06:41:30.658Z,17.78
2022-09-14T06:44:02.963Z,17.80
2022-09-14T06:46:33.049Z,17.75
2022-09-14T06:49:07.334Z,17.53
2022-09-14T06:51:40.307Z,17.47
2022-09-14T06:54:13.263Z,17.34
2022-09-14T06:57:06.146Z,17.09
2022-09-14T06:59:36.144Z,16.95
2022-09-14T07:02:03.677Z,16.83
2022-09-14T07:04:31.198Z,16.71
2022-09-14T07:06:59.131Z,16.62
2022-09-14T07:09:26.785Z,16.48
2022-09-14T07:11:54.914Z,16.44
2022-09-14T07:14:22.451Z,16.45
2022-09-14T07:16:49.988Z,16.41
2022-09-14T07:19:17.612Z,16.28
2022-09-14T07:21:45.179Z,16.02
2022-09-14T07:24:16.820Z,15.98
2022-09-14T07:26:44.493Z,16.10
2022-09-14T07:29:19.903Z,16.12
2022-09-14T07:31:53.841Z,16.13
2022-09-14T07:34:21.878Z,16.14
2022-09-14T07:36:51.870Z,16.20
2022-09-14T07:39:19.447Z,16.12
2022-09-14T07:41:47.229Z,16.25
2022-09-14T07:44:17.633Z,16.41
2022-09-14T07:46:48.148Z,16.61
2022-09-14T07:49:17.261Z,16.72
2022-09-14T07:51:45.611Z,16.75
2022-09-14T07:54:16.381Z,16.58
2022-09-14T07:56:44.743Z,16.72
2022-09-14T08:02:03.943Z,16.73
2022-09-14T08:04:31.494Z,16.83
2022-09-14T08:06:59.017Z,16.94
2022-09-14T08:09:28.166Z,17.09
2022-09-14T08:11:59.417Z,17.17
2022-09-14T08:14:28.996Z,17.26
2022-09-14T08:16:57.253Z,17.29
2022-09-14T08:19:26.194Z,17.08
2022-09-14T08:21:53.781Z,16.94
2022-09-14T08:24:22.690Z,16.93
2022-09-14T08:26:51.228Z,16.99
2022-09-14T08:29:20.044Z,17.19
2022-09-14T08:31:52.016Z,17.37
2022-09-14T08:34:20.368Z,17.55
2022-09-14T08:36:53.564Z,17.68
2022-09-14T08:39:21.545Z,17.94
2022-09-14T08:41:55.618Z,18.24
2022-09-14T08:44:32.173Z,18.90
2022-09-14T08:47:12.832Z,20.47
2022-09-14T08:49:48.667Z,21.76
2022-09-14T08:52:36.027Z,21.91
2022-09-14T08:55:20.198Z,22.14
2022-09-14T08:58:06.651Z,22.55
2022-09-14T09:01:13.376Z,22.58
2022-09-14T09:03:53.258Z,22.72
2022-09-14T09:06:39.397Z,22.74
2022-09-14T09:09:45.566Z,22.15
2022-09-14T09:12:37.845Z,21.36
2022-09-14T09:15:26.630Z,20.84
2022-09-14T09:18:08.661Z,20.74
2022-09-14T09:20:44.084Z,20.78
2022-09-14T09:23:16.353Z,20.79
2022-09-14T09:25:50.185Z,20.95
2022-09-14T09:28:23.006Z,21.48
2022-09-14T09:30:50.980Z,21.10
2022-09-14T09:33:24.490Z,21.12
2022-09-14T09:35:53.481Z,21.35
2022-09-14T09:38:24.996Z,21.71
2022-09-14T09:41:16.746Z,22.28
2022-09-14T09:44:06.847Z,22.69
2022-09-14T09:46:36.544Z,22.53
2022-09-14T09:49:15.427Z,22.56
2022-09-14T09:51:43.464Z,23.08
2022-09-14T09:54:13.664Z,23.68
2022-09-14T09:57:19.744Z,24.33
2022-09-14T09:59:48.568Z,24.01
2022-09-14T10:02:29.947Z,23.63
2022-09-14T10:05:00.348Z,23.42
2022-09-14T10:07:29.608Z,23.13
2022-09-14T10:10:08.330Z,22.97
2022-09-14T10:12:38.273Z,23.02
2022-09-14T10:15:31.973Z,23.46
2022-09-14T10:18:20.215Z,23.43
2022-09-14T10:20:53.983Z,23.59
2022-09-14T10:23:21.426Z,23.60
2022-09-14T10:26:15.011Z,23.48
2022-09-14T10:28:48.379Z,23.30
2022-09-14T10:31:16.031Z,23.17
2022-09-14T10:33:47.249Z,23.34
2022-09-14T10:36:21.528Z,23.29
2022-09-14T10:38:56.097Z,23.54
2022-09-14T10:41:32.671Z,23.67
2022-09-14T10:44:36.162Z,23.64
2022-09-14T10:47:10.254Z,23.24
2022-09-14T10:50:07.449Z,22.70
2022-09-14T10:52:57.781Z,22.15
2022-09-14T10:55:34.373Z,21.76
2022-09-14T10:58:39.971Z,21.79
2022-09-14T11:01:34.965Z,21.99
2022-09-14T11:04:29.574Z,22.30
2022-09-14T11:07:10.113Z,22.42
2022-09-14T11:09:48.015Z,21.97
2022-09-14T11:12:27.677Z,22.11
2022-09-14T11:15:20.587Z,22.29
2022-09-14T11:18:20.582Z,21.94
2022-09-14T11:20:59.505Z,21.98
2022-09-14T11:23:38.620Z,22.33
2022-09-14T11:26:12.153Z,22.22
2022-09-14T11:28:49.346Z,22.29
2022-09-14T11:31:40.857Z,22.19
2022-09-14T11:34:29.679Z,21.83
2022-09-14T11:37:04.661Z,21.76
2022-09-14T11:39:41.623Z,21.70
2022-09-14T11:42:21.973Z,21.71
2022-09-14T11:44:55.090Z,21.95
2022-09-14T11:47:24.558Z,22.09
2022-09-14T11:50:01.151Z,22.28
2022-09-14T11:52:31.203Z,22.28
2022-09-14T11:55:00.763Z,22.51
2022-09-14T11:57:32.090Z,22.62
2022-09-14T12:00:10.195Z,22.69
2022-09-14T12:02:37.694Z,22.72
2022-09-14T12:05:08.285Z,22.70
2022-09-14T12:07:42.285Z,22.94
2022-09-14T12:10:15.847Z,22.96
2022-09-14T12:12:47.310Z,22.90
2022-09-14T12:15:27.089Z,23.24
2022-09-14T12:18:06.601Z,23.37
2022-09-14T12:20:43.321Z,23.60
2022-09-14T12:23:38.705Z,24.17
2022-09-14T12:26:12.058Z,24.56
2022-09-14T12:28:47.888Z,24.84
2022-09-14T12:31:38.684Z,25.23
2022-09-14T12:34:07.767Z,25.48
2022-09-14T12:36:40.423Z,25.04
2022-09-14T12:39:25.000Z,24.94
2022-09-14T12:41:52.686Z,25.17
2022-09-14T12:44:34.528Z,25.57
2022-09-14T12:47:27.881Z,25.88
2022-09-14T12:49:57.802Z,25.83
2022-09-14T12:52:37.370Z,25.98
2022-09-14T12:55:35.783Z,25.71
2022-09-14T12:58:16.356Z,25.45
2022-09-14T13:00:58.706Z,25.69
2022-09-14T13:03:47.663Z,25.63
2022-09-14T13:06:16.017Z,25.16
2022-09-14T13:08:49.496Z,25.30
2022-09-14T13:11:27.663Z,25.96
2022-09-14T13:13:57.284Z,26.17
2022-09-14T13:16:40.629Z,25.79
2022-09-14T13:19:21.290Z,26.00
2022-09-14T13:21:51.621Z,25.95
2022-09-14T13:24:45.378Z,25.58
2022-09-14T13:27:19.677Z,25.68
2022-09-14T13:29:49.759Z,24.95
2022-09-14T13:32:21.954Z,24.91
2022-09-14T13:34:49.807Z,24.97
2022-09-14T13:37:17.686Z,24.86
2022-09-14T13:39:51.360Z,24.79
2022-09-14T13:42:19.564Z,24.65
2022-09-14T13:44:50.068Z,24.54
2022-09-14T13:47:22.465Z,24.83
2022-09-14T13:49:52.325Z,24.69
2022-09-14T13:52:25.895Z,24.44
2022-09-14T13:55:27.990Z,24.37
2022-09-14T13:58:11.000Z,24.30
2022-09-14T14:00:54.715Z,24.24
2022-09-14T14:03:32.295Z,24.17
2022-09-14T14:06:01.202Z,24.17
2022-09-14T14:08:33.897Z,24.17
2022-09-14T14:11:07.950Z,24.12
2022-09-14T14:13:38.246Z,24.26
2022-09-14T14:16:15.541Z,24.33
2022-09-14T14:18:50.195Z,24.32
2022-09-14T14:21:28.731Z,24.41
2022-09-14T14:24:21.568Z,24.30
2022-09-14T14:26:55.009Z,24.40
2022-09-14T14:29:26.558Z,24.27
2022-09-14T14:31:57.050Z,24.25
2022-09-14T14:34:30.513Z,24.25
2022-09-14T14:36:58.143Z,24.26
2022-09-14T14:39:26.951Z,24.23
2022-09-14T14:41:55.466Z,24.20
2022-09-14T14:44:30.496Z,24.29
2022-09-14T14:47:01.449Z,24.36
2022-09-14T14:49:28.951Z,24.24
2022-09-14T14:51:56.568Z,24.28
2022-09-14T14:54:26.570Z,24.23
2022-09-14T14:56:54.082Z,24.09
2022-09-14T14:59:21.548Z,23.93
2022-09-14T15:01:51.990Z,23.73
2022-09-14T15:04:19.962Z,23.55
2022-09-14T15:06:48.198Z,23.47
2022-09-14T15:09:25.758Z,23.42
2022-09-14T15:11:53.516Z,23.43
2022-09-14T15:14:26.581Z,23.36
2022-09-14T15:16:57.949Z,23.42
2022-09-14T15:19:30.790Z,23.51
2022-09-14T15:22:01.341Z,23.55
2022-09-14T15:24:30.127Z,23.69
2022-09-14T15:27:00.348Z,23.76
2022-09-14T15:29:30.427Z,23.81
2022-09-14T15:31:58.158Z,23.72
2022-09-14T15:34:25.928Z,23.66
2022-09-14T15:36:55.052Z,23.52
2022-09-14T15:39:26.732Z,23.46
2022-09-14T15:41:55.547Z,23.28
2022-09-14T15:44:24.506Z,23.14
2022-09-14T15:46:52.971Z,23.10
2022-09-14T15:49:25.785Z,23.00
2022-09-14T15:51:55.753Z,22.91
2022-09-14T15:54:27.496Z,22.88
2022-09-14T15:56:59.332Z,22.83
2022-09-14T15:59:28.984Z,22.80
2022-09-14T16:01:59.980Z,22.74
2022-09-14T16:04:27.684Z,22.66
2022-09-14T16:06:55.443Z,22.59
2022-09-14T16:09:23.240Z,22.54
2022-09-14T16:11:51.096Z,22.49
2022-09-14T16:14:18.626Z,22.44
2022-09-14T16:16:46.239Z,22.34
2022-09-14T16:19:15.756Z,22.33
2022-09-14T16:21:43.981Z,22.28
2022-09-14T16:24:20.719Z,22.22
2022-09-14T16:26:48.901Z,22.10
2022-09-14T16:29:20.886Z,22.05
2022-09-14T16:31:49.569Z,21.95
2022-09-14T16:34:21.610Z,21.81
2022-09-14T16:36:50.076Z,21.77
2022-09-14T16:39:25.944Z,21.63
2022-09-14T16:41:55.912Z,21.53
2022-09-14T16:44:25.631Z,21.54
2022-09-14T16:46:58.450Z,21.42
2022-09-14T16:49:28.490Z,21.25
2022-09-14T16:52:02.980Z,21.05
2022-09-14T16:54:31.821Z,20.87
2022-09-14T16:57:01.244Z,20.72
2022-09-14T16:59:31.347Z,20.57
2022-09-14T17:02:01.365Z,20.40
2022-09-14T17:04:31.152Z,20.25
2022-09-14T17:07:00.793Z,20.12
2022-09-14T17:09:30.637Z,20.00
2022-09-14T17:11:59.095Z,19.88
2022-09-14T17:14:34.419Z,19.78
2022-09-14T17:17:04.405Z,19.63
2022-09-14T17:19:31.966Z,19.53
2022-09-14T17:21:59.682Z,19.41
2022-09-14T17:24:27.365Z,19.33
2022-09-14T17:26:55.263Z,19.22
2022-09-14T17:29:25.740Z,19.12
2022-09-14T17:31:55.462Z,19.06
2022-09-14T17:34:23.060Z,18.97
2022-09-14T17:36:50.556Z,18.91
2022-09-14T17:39:18.052Z,18.87
2022-09-14T17:41:45.615Z,18.79
2022-09-14T17:44:16.035Z,18.78
2022-09-14T17:46:52.003Z,18.75
2022-09-14T17:49:22.161Z,18.72
2022-09-14T17:51:50.855Z,18.71
2022-09-14T17:54:19.826Z,18.65
2022-09-14T17:56:47.524Z,18.62
2022-09-14T17:59:20.119Z,18.59
2022-09-14T18:01:49.477Z,18.56
2022-09-14T18:04:19.179Z,18.52
2022-09-14T18:06:48.830Z,18.46
2022-09-14T18:09:19.124Z,18.41
2022-09-14T18:11:49.514Z,18.38
2022-09-14T18:14:17.715Z,18.35
2022-09-14T18:16:45.791Z,18.31
2022-09-14T18:19:13.796Z,18.30
2022-09-14T18:21:42.037Z,18.26
2022-09-14T18:24:11.938Z,18.22
2022-09-14T18:26:43.552Z,18.21
2022-09-14T18:29:15.729Z,18.16
2022-09-14T18:31:44.484Z,18.12
2022-09-14T18:34:12.153Z,18.09
2022-09-14T18:36:40.192Z,18.07
2022-09-14T18:39:15.722Z,18.03
2022-09-14T18:41:43.743Z,18.00
2022-09-14T18:44:11.488Z,17.97
2022-09-14T18:46:41.426Z,17.96
2022-09-14T18:49:10.331Z,17.91
2022-09-14T18:51:38.307Z,17.91
2022-09-14T18:54:08.718Z,17.87
2022-09-14T18:56:38.260Z,17.85
2022-09-14T18:59:12.727Z,17.78
2022-09-14T19:01:43.641Z,17.80
2022-09-14T19:04:12.331Z,17.82
2022-09-14T19:06:41.593Z,17.80
2022-09-14T19:09:09.939Z,17.78
2022-09-14T19:11:37.557Z,17.78
2022-09-14T19:14:10.224Z,17.80
2022-09-14T19:16:39.757Z,17.82
2022-09-14T19:19:08.693Z,17.86
2022-09-14T19:21:36.661Z,17.88
2022-09-14T19:24:11.660Z,17.92
2022-09-14T19:26:45.626Z,17.96
2022-09-14T19:29:18.105Z,18.00
2022-09-14T19:31:48.417Z,18.03
2022-09-14T19:34:16.126Z,18.04
2022-09-14T19:36:44.264Z,18.04
2022-09-14T19:39:12.226Z,18.03
2022-09-14T19:41:40.522Z,18.05
2022-09-14T19:44:08.952Z,18.04
2022-09-14T19:46:40.224Z,18.03
2022-09-14T19:49:14.331Z,18.02
2022-09-14T19:51:42.013Z,18.01
2022-09-14T19:54:10.273Z,18.01
2022-09-14T19:56:38.552Z,18.02
2022-09-14T19:59:09.557Z,18.05
2022-09-14T20:01:39.139Z,18.07
2022-09-14T20:04:07.867Z,18.28
2022-09-14T20:06:42.537Z,18.33
2022-09-14T20:09:14.653Z,18.41
2022-09-14T20:11:44.562Z,18.61
2022-09-14T20:14:16.965Z,18.73
2022-09-14T20:16:47.511Z,18.85
2022-09-14T20:19:17.438Z,18.94
2022-09-14T20:21:49.235Z,19.08
2022-09-14T20:24:19.978Z,19.16
2022-09-14T20:26:49.620Z,19.24
2022-09-14T20:29:18.862Z,19.37
2022-09-14T20:31:47.154Z,19.42
2022-09-14T20:34:17.177Z,19.51
2022-09-14T20:36:45.239Z,19.64
2022-09-14T20:39:12.749Z,19.76
2022-09-14T20:41:40.679Z,19.84
2022-09-14T20:44:08.661Z,19.93
2022-09-14T20:46:39.299Z,20.03
2022-09-14T20:49:11.267Z,20.02
2022-09-14T20:51:39.576Z,20.09
2022-09-14T20:54:08.763Z,20.15
2022-09-14T20:56:36.788Z,20.18
2022-09-14T20:59:07.231Z,20.24
2022-09-14T21:01:37.385Z,20.25
2022-09-14T21:04:11.907Z,20.24
2022-09-14T21:06:42.386Z,20.20
2022-09-14T21:09:11.322Z,20.16
2022-09-14T21:11:39.612Z,20.21
2022-09-14T21:14:07.281Z,20.26
2022-09-14T21:16:42.837Z,20.36
2022-09-14T21:19:26.913Z,20.40
2022-09-14T21:21:57.248Z,20.49
2022-09-14T21:24:25.806Z,20.52
2022-09-14T21:26:53.466Z,20.61
2022-09-14T21:29:26.816Z,20.71
2022-09-14T21:31:54.454Z,20.82
2022-09-14T21:34:22.499Z,20.86
2022-09-14T21:36:51.883Z,20.86
2022-09-14T21:39:23.019Z,20.93
2022-09-14T21:41:57.311Z,20.91
2022-09-14T21:44:34.112Z,20.95
2022-09-14T21:47:03.168Z,21.02
2022-09-14T21:49:30.694Z,21.05
2022-09-14T21:51:58.256Z,21.01
2022-09-14T21:54:27.424Z,20.97
2022-09-14T21:56:55.127Z,21.04
2022-09-14T21:59:23.994Z,20.99
2022-09-14T22:01:51.638Z,20.93
2022-09-14T22:04:23.970Z,20.87
2022-09-14T22:06:53.542Z,20.81
2022-09-14T22:09:23.580Z,20.74
2022-09-14T22:11:53.666Z,20.65
2022-09-14T22:41:17.593Z,20.12
2022-09-14T22:43:46.040Z,19.95
2022-09-14T22:46:14.204Z,19.83
2022-09-14T22:48:45.110Z,19.75
2022-09-14T22:51:18.361Z,19.71
2022-09-14T22:53:46.039Z,19.70
2022-09-14T22:56:16.760Z,19.70
2022-09-14T22:58:44.914Z,19.71
2022-09-14T23:01:25.005Z,19.69
2022-09-14T23:03:58.470Z,19.68
2022-09-14T23:06:35.735Z,19.65
2022-09-14T23:09:04.265Z,19.63
2022-09-14T23:11:34.541Z,19.61
2022-09-14T23:14:02.014Z,19.60
2022-09-14T23:16:31.096Z,19.58
2022-09-14T23:19:03.043Z,19.58
2022-09-14T23:21:32.500Z,19.57
2022-09-14T23:24:06.967Z,19.57
2022-09-14T23:26:37.041Z,19.56
2022-09-14T23:29:07.083Z,19.54
2022-09-14T23:31:34.834Z,19.51
2022-09-14T23:34:06.194Z,19.46
2022-09-14T23:36:34.344Z,19.43
2022-09-14T23:39:02.853Z,19.39
2022-09-14T23:41:30.448Z,19.35
2022-09-14T23:43:57.968Z,19.34
2022-09-14T23:46:25.637Z,19.32
2022-09-14T23:48:53.842Z,19.30
2022-09-14T23:51:21.318Z,19.33
2022-09-14T23:53:49.058Z,19.34
2022-09-14T23:56:16.682Z,19.37
2022-09-14T23:58:44.526Z,19.41
